sensor_id;sensor_type;location;lat;lon;timestamp;pressure;altitude;pressure_sealevel;temperature;humidity
52249;BME280;38541;48.130;8.378;2023-09-19T00:00:16;92571.16;;;15.69;75.32
52249;BME280;38541;48.130;8.378;2023-09-19T00:02:58;92575.56;;;15.74;75.92
52249;BME280;38541;48.130;8.378;2023-09-19T00:05:27;92589.91;;;15.73;75.80
52249;BME280;38541;48.130;8.378;2023-09-19T00:07:56;92583.81;;;15.72;75.82
52249;BME280;38541;48.130;8.378;2023-09-19T00:10:26;92580.88;;;15.74;75.95
52249;BME280;38541;48.130;8.378;2023-09-19T00:12:54;92589.00;;;15.77;76.17
52249;BME280;38541;48.130;8.378;2023-09-19T00:15:24;92588.69;;;15.79;75.75
52249;BME280;38541;48.130;8.378;2023-09-19T00:17:51;92588.72;;;15.65;75.24
52249;BME280;38541;48.130;8.378;2023-09-19T00:20:21;92580.50;;;15.66;75.57
52249;BME280;38541;48.130;8.378;2023-09-19T00:22:50;92592.56;;;15.73;75.69
52249;BME280;38541;48.130;8.378;2023-09-19T00:25:20;92586.53;;;15.81;75.58
52249;BME280;38541;48.130;8.378;2023-09-19T00:27:47;92591.44;;;15.88;75.56
52249;BME280;38541;48.130;8.378;2023-09-19T00:30:16;92593.81;;;15.89;75.65
52249;BME280;38541;48.130;8.378;2023-09-19T00:32:43;92582.44;;;15.89;75.27
52249;BME280;38541;48.130;8.378;2023-09-19T00:35:10;92590.28;;;15.94;75.38
52249;BME280;38541;48.130;8.378;2023-09-19T00:37:37;92595.28;;;15.95;75.96
52249;BME280;38541;48.130;8.378;2023-09-19T00:40:07;92597.44;;;15.93;75.47
52249;BME280;38541;48.130;8.378;2023-09-19T00:42:39;92598.31;;;15.89;75.22
52249;BME280;38541;48.130;8.378;2023-09-19T00:45:07;92598.13;;;15.85;75.36
52249;BME280;38541;48.130;8.378;2023-09-19T00:47:35;92593.59;;;15.86;74.97
52249;BME280;38541;48.130;8.378;2023-09-19T00:50:04;92592.22;;;15.88;75.44
52249;BME280;38541;48.130;8.378;2023-09-19T00:52:37;92592.44;;;15.92;75.55
52249;BME280;38541;48.130;8.378;2023-09-19T00:55:06;92598.72;;;15.96;75.62
52249;BME280;38541;48.130;8.378;2023-09-19T00:57:34;92608.50;;;15.95;76.03
52249;BME280;38541;48.130;8.378;2023-09-19T01:00:02;92601.38;;;15.96;75.84
52249;BME280;38541;48.130;8.378;2023-09-19T01:02:34;92603.63;;;15.89;75.44
52249;BME280;38541;48.130;8.378;2023-09-19T01:05:01;92604.00;;;15.82;75.56
52249;BME280;38541;48.130;8.378;2023-09-19T01:07:31;92600.19;;;15.88;75.47
52249;BME280;38541;48.130;8.378;2023-09-19T01:10:05;92590.66;;;15.87;75.28
52249;BME280;38541;48.130;8.378;2023-09-19T01:21:11;92602.66;;;15.71;75.35
52249;BME280;38541;48.130;8.378;2023-09-19T01:23:58;92613.53;;;15.69;75.31
52249;BME280;38541;48.130;8.378;2023-09-19T01:32:08;92616.38;;;15.73;75.63
52249;BME280;38541;48.130;8.378;2023-09-19T01:34:50;92620.72;;;15.68;75.38
52249;BME280;38541;48.130;8.378;2023-09-19T01:37:18;92621.00;;;15.67;75.37
52249;BME280;38541;48.130;8.378;2023-09-19T01:39:56;92622.88;;;15.66;75.32
52249;BME280;38541;48.130;8.378;2023-09-19T01:45:31;92624.44;;;15.67;75.04
52249;BME280;38541;48.130;8.378;2023-09-19T01:48:17;92625.69;;;15.70;74.96
52249;BME280;38541;48.130;8.378;2023-09-19T01:50:59;92625.41;;;15.72;74.73
52249;BME280;38541;48.130;8.378;2023-09-19T01:53:30;92625.31;;;15.77;74.92
52249;BME280;38541;48.130;8.378;2023-09-19T01:56:00;92627.34;;;15.80;75.11
52249;BME280;38541;48.130;8.378;2023-09-19T01:58:40;92628.16;;;15.80;74.96
52249;BME280;38541;48.130;8.378;2023-09-19T02:01:11;92626.78;;;15.83;75.19
52249;BME280;38541;48.130;8.378;2023-09-19T02:03:40;92632.66;;;15.80;74.79
52249;BME280;38541;48.130;8.378;2023-09-19T02:06:07;92638.53;;;15.77;74.90
52249;BME280;38541;48.130;8.378;2023-09-19T02:08:38;92642.38;;;15.71;74.76
52249;BME280;38541;48.130;8.378;2023-09-19T02:11:04;92630.34;;;15.64;74.87
52249;BME280;38541;48.130;8.378;2023-09-19T02:13:31;92639.94;;;15.60;74.57
52249;BME280;38541;48.130;8.378;2023-09-19T02:15:59;92646.41;;;15.54;74.88
52249;BME280;38541;48.130;8.378;2023-09-19T02:18:26;92640.94;;;15.64;74.98
52249;BME280;38541;48.130;8.378;2023-09-19T02:20:54;92635.22;;;15.57;74.33
52249;BME280;38541;48.130;8.378;2023-09-19T02:23:22;92639.44;;;15.58;74.69
52249;BME280;38541;48.130;8.378;2023-09-19T02:25:56;92643.41;;;15.47;74.56
52249;BME280;38541;48.130;8.378;2023-09-19T02:28:26;92642.91;;;15.45;74.88
52249;BME280;38541;48.130;8.378;2023-09-19T02:30:57;92636.22;;;15.47;75.33
52249;BME280;38541;48.130;8.378;2023-09-19T02:33:23;92641.31;;;15.44;75.51
52249;BME280;38541;48.130;8.378;2023-09-19T02:35:56;92643.47;;;15.41;74.88
52249;BME280;38541;48.130;8.378;2023-09-19T02:38:27;92639.56;;;15.53;75.53
52249;BME280;38541;48.130;8.378;2023-09-19T02:40:53;92647.41;;;15.58;74.99
52249;BME280;38541;48.130;8.378;2023-09-19T02:43:22;92645.72;;;15.48;74.77
52249;BME280;38541;48.130;8.378;2023-09-19T02:45:49;92640.91;;;15.50;74.92
52249;BME280;38541;48.130;8.378;2023-09-19T02:48:16;92636.41;;;15.51;74.92
52249;BME280;38541;48.130;8.378;2023-09-19T02:50:46;92638.59;;;15.49;74.82
52249;BME280;38541;48.130;8.378;2023-09-19T02:53:12;92636.41;;;15.51;74.74
52249;BME280;38541;48.130;8.378;2023-09-19T02:55:39;92642.69;;;15.41;74.60
52249;BME280;38541;48.130;8.378;2023-09-19T02:58:09;92640.94;;;15.36;75.27
52249;BME280;38541;48.130;8.378;2023-09-19T03:00:38;92638.78;;;15.38;75.49
52249;BME280;38541;48.130;8.378;2023-09-19T03:03:05;92640.06;;;15.41;75.19
52249;BME280;38541;48.130;8.378;2023-09-19T03:05:34;92641.22;;;15.35;75.27
52249;BME280;38541;48.130;8.378;2023-09-19T03:08:01;92639.84;;;15.37;75.23
52249;BME280;38541;48.130;8.378;2023-09-19T03:10:29;92635.03;;;15.39;74.76
52249;BME280;38541;48.130;8.378;2023-09-19T03:12:58;92648.75;;;15.41;74.99
52249;BME280;38541;48.130;8.378;2023-09-19T03:15:26;92642.69;;;15.41;75.14
52249;BME280;38541;48.130;8.378;2023-09-19T03:17:53;92647.59;;;15.48;75.44
52249;BME280;38541;48.130;8.378;2023-09-19T03:20:22;92656.63;;;15.47;75.27
52249;BME280;38541;48.130;8.378;2023-09-19T03:22:49;92657.28;;;15.52;74.89
52249;BME280;38541;48.130;8.378;2023-09-19T03:25:16;92653.06;;;15.51;75.11
52249;BME280;38541;48.130;8.378;2023-09-19T03:27:47;92647.88;;;15.60;75.09
52249;BME280;38541;48.130;8.378;2023-09-19T03:30:14;92651.53;;;15.64;74.84
52249;BME280;38541;48.130;8.378;2023-09-19T03:32:45;92655.44;;;15.67;74.96
52249;BME280;38541;48.130;8.378;2023-09-19T03:35:13;92646.59;;;15.72;75.71
52249;BME280;38541;48.130;8.378;2023-09-19T03:37:41;92646.59;;;15.72;75.36
52249;BME280;38541;48.130;8.378;2023-09-19T03:40:09;92646.59;;;15.72;75.50
52249;BME280;38541;48.130;8.378;2023-09-19T03:42:41;92643.97;;;15.72;75.48
52249;BME280;38541;48.130;8.378;2023-09-19T03:45:11;92647.09;;;15.74;75.18
52249;BME280;38541;48.130;8.378;2023-09-19T03:47:43;92659.75;;;15.77;75.53
52249;BME280;38541;48.130;8.378;2023-09-19T03:50:10;92648.06;;;15.78;75.31
52249;BME280;38541;48.130;8.378;2023-09-19T03:52:44;92650.09;;;15.81;75.44
52249;BME280;38541;48.130;8.378;2023-09-19T03:55:11;92652.19;;;15.84;75.72
52249;BME280;38541;48.130;8.378;2023-09-19T03:57:39;92646.38;;;15.82;75.54
52249;BME280;38541;48.130;8.378;2023-09-19T04:00:06;92653.28;;;15.83;75.62
52249;BME280;38541;48.130;8.378;2023-09-19T04:02:39;92647.97;;;15.83;75.85
52249;BME280;38541;48.130;8.378;2023-09-19T04:05:07;92651.88;;;15.86;76.35
52249;BME280;38541;48.130;8.378;2023-09-19T04:07:34;92648.53;;;15.80;75.85
52249;BME280;38541;48.130;8.378;2023-09-19T04:10:03;92649.53;;;15.84;75.98
52249;BME280;38541;48.130;8.378;2023-09-19T04:12:30;92653.44;;;15.87;75.79
52249;BME280;38541;48.130;8.378;2023-09-19T04:14:56;92655.00;;;15.88;75.65
52249;BME280;38541;48.130;8.378;2023-09-19T04:17:23;92660.72;;;15.81;75.05
52249;BME280;38541;48.130;8.378;2023-09-19T04:19:50;92654.31;;;15.82;75.34
52249;BME280;38541;48.130;8.378;2023-09-19T04:22:17;92658.75;;;15.87;75.92
52249;BME280;38541;48.130;8.378;2023-09-19T04:24:43;92659.06;;;15.85;76.11
52249;BME280;38541;48.130;8.378;2023-09-19T04:27:10;92659.84;;;15.72;75.12
52249;BME280;38541;48.130;8.378;2023-09-19T04:29:40;92665.03;;;15.77;75.44
52249;BME280;38541;48.130;8.378;2023-09-19T04:32:08;92673.47;;;15.79;75.00
52249;BME280;38541;48.130;8.378;2023-09-19T04:34:36;92659.38;;;15.69;74.08
52249;BME280;38541;48.130;8.378;2023-09-19T04:37:05;92661.53;;;15.67;74.01
52249;BME280;38541;48.130;8.378;2023-09-19T04:39:31;92656.81;;;15.64;73.88
52249;BME280;38541;48.130;8.378;2023-09-19T04:41:58;92660.03;;;15.61;73.84
52249;BME280;38541;48.130;8.378;2023-09-19T04:44:25;92666.34;;;15.65;73.99
52249;BME280;38541;48.130;8.378;2023-09-19T04:46:52;92653.75;;;15.71;74.30
52249;BME280;38541;48.130;8.378;2023-09-19T04:49:18;92659.38;;;15.69;73.98
52249;BME280;38541;48.130;8.378;2023-09-19T04:51:45;92665.25;;;15.66;73.90
52249;BME280;38541;48.130;8.378;2023-09-19T04:54:13;92659.38;;;15.69;74.00
52249;BME280;38541;48.130;8.378;2023-09-19T04:56:42;92659.16;;;15.66;73.83
52249;BME280;38541;48.130;8.378;2023-09-19T04:59:08;92665.16;;;15.58;74.00
52249;BME280;38541;48.130;8.378;2023-09-19T05:01:37;92672.91;;;15.54;74.15
52249;BME280;38541;48.130;8.378;2023-09-19T05:04:04;92674.94;;;15.57;74.66
52249;BME280;38541;48.130;8.378;2023-09-19T05:06:31;92667.41;;;15.50;73.69
52249;BME280;38541;48.130;8.378;2023-09-19T05:08:57;92684.25;;;15.40;74.20
52249;BME280;38541;48.130;8.378;2023-09-19T05:11:24;92690.44;;;15.36;74.19
52249;BME280;38541;48.130;8.378;2023-09-19T05:13:51;92691.50;;;15.35;74.78
52249;BME280;38541;48.130;8.378;2023-09-19T05:16:19;92692.13;;;15.46;74.79
52249;BME280;38541;48.130;8.378;2023-09-19T05:18:46;92692.13;;;15.46;74.63
52249;BME280;38541;48.130;8.378;2023-09-19T05:21:13;92703.50;;;15.60;74.79
52249;BME280;38541;48.130;8.378;2023-09-19T05:23:39;92696.44;;;15.69;75.04
52249;BME280;38541;48.130;8.378;2023-09-19T05:26:06;92699.19;;;15.78;75.38
52249;BME280;38541;48.130;8.378;2023-09-19T05:28:33;92704.38;;;15.83;75.52
52249;BME280;38541;48.130;8.378;2023-09-19T05:31:01;92702.13;;;15.77;74.45
52249;BME280;38541;48.130;8.378;2023-09-19T05:33:31;92711.53;;;15.69;73.89
52249;BME280;38541;48.130;8.378;2023-09-19T05:35:58;92717.53;;;15.75;74.18
52249;BME280;38541;48.130;8.378;2023-09-19T05:38:25;92722.72;;;15.80;73.98
52249;BME280;38541;48.130;8.378;2023-09-19T05:40:54;92735.38;;;15.69;73.86
52249;BME280;38541;48.130;8.378;2023-09-19T05:43:20;92734.28;;;15.56;74.05
52249;BME280;38541;48.130;8.378;2023-09-19T05:45:47;92732.91;;;15.45;74.91
52249;BME280;38541;48.130;8.378;2023-09-19T05:48:14;92741.84;;;15.49;75.56
52249;BME280;38541;48.130;8.378;2023-09-19T05:50:42;92738.72;;;15.61;75.45
52249;BME280;38541;48.130;8.378;2023-09-19T05:53:09;92741.16;;;15.57;75.17
52249;BME280;38541;48.130;8.378;2023-09-19T05:55:39;92742.13;;;15.61;75.43
52249;BME280;38541;48.130;8.378;2023-09-19T05:58:06;92740.97;;;15.67;75.57
52249;BME280;38541;48.130;8.378;2023-09-19T06:00:33;92744.88;;;15.56;75.11
52249;BME280;38541;48.130;8.378;2023-09-19T06:03:03;92738.22;;;15.59;75.30
52249;BME280;38541;48.130;8.378;2023-09-19T06:05:29;92741.38;;;15.61;75.58
52249;BME280;38541;48.130;8.378;2023-09-19T06:07:58;92744.22;;;15.64;75.39
52249;BME280;38541;48.130;8.378;2023-09-19T06:10:35;92746.56;;;15.66;75.06
52249;BME280;38541;48.130;8.378;2023-09-19T06:13:02;92739.59;;;15.70;75.14
52249;BME280;38541;48.130;8.378;2023-09-19T06:15:31;92740.56;;;15.60;74.96
52249;BME280;38541;48.130;8.378;2023-09-19T06:17:59;92745.09;;;15.74;75.68
52249;BME280;38541;48.130;8.378;2023-09-19T06:20:26;92747.84;;;15.82;75.75
52249;BME280;38541;48.130;8.378;2023-09-19T06:22:53;92752.78;;;15.89;75.05
52249;BME280;38541;48.130;8.378;2023-09-19T06:25:21;92746.91;;;15.92;75.01
52249;BME280;38541;48.130;8.378;2023-09-19T06:27:51;92752.19;;;15.92;74.91
52249;BME280;38541;48.130;8.378;2023-09-19T06:30:22;92753.00;;;15.93;74.89
52249;BME280;38541;48.130;8.378;2023-09-19T06:32:57;92747.84;;;15.82;73.60
52249;BME280;38541;48.130;8.378;2023-09-19T06:35:24;92753.16;;;15.82;74.09
52249;BME280;38541;48.130;8.378;2023-09-19T06:37:52;92753.94;;;15.83;73.72
52249;BME280;38541;48.130;8.378;2023-09-19T06:40:20;92766.19;;;15.79;73.74
52249;BME280;38541;48.130;8.378;2023-09-19T06:42:50;92767.47;;;15.67;73.60
52249;BME280;38541;48.130;8.378;2023-09-19T06:45:17;92763.44;;;15.70;73.34
52249;BME280;38541;48.130;8.378;2023-09-19T06:47:46;92767.25;;;15.78;73.00
52249;BME280;38541;48.130;8.378;2023-09-19T06:50:21;92767.16;;;15.69;72.85
52249;BME280;38541;48.130;8.378;2023-09-19T06:52:53;92770.88;;;15.82;72.98
52249;BME280;38541;48.130;8.378;2023-09-19T06:55:22;92771.78;;;15.77;72.84
52249;BME280;38541;48.130;8.378;2023-09-19T06:57:52;92772.50;;;15.83;73.26
52249;BME280;38541;48.130;8.378;2023-09-19T07:00:20;92770.22;;;15.76;72.84
52249;BME280;38541;48.130;8.378;2023-09-19T07:03:01;92778.94;;;15.77;73.51
52249;BME280;38541;48.130;8.378;2023-09-19T07:05:31;92778.06;;;15.67;73.89
52249;BME280;38541;48.130;8.378;2023-09-19T07:08:01;92782.78;;;15.71;74.12
52249;BME280;38541;48.130;8.378;2023-09-19T07:10:28;92789.81;;;15.61;74.77
52249;BME280;38541;48.130;8.378;2023-09-19T07:15:27;92783.94;;;15.64;75.47
52249;BME280;38541;48.130;8.378;2023-09-19T07:17:54;92798.44;;;15.67;74.69
52249;BME280;38541;48.130;8.378;2023-09-19T07:20:23;92788.94;;;15.80;75.05
52249;BME280;38541;48.130;8.378;2023-09-19T07:22:53;92800.63;;;15.79;74.73
52249;BME280;38541;48.130;8.378;2023-09-19T07:25:29;92811.28;;;15.60;73.99
52249;BME280;38541;48.130;8.378;2023-09-19T07:27:56;92806.75;;;15.46;73.96
52249;BME280;38541;48.130;8.378;2023-09-19T07:30:26;92817.25;;;15.51;74.40
52249;BME280;38541;48.130;8.378;2023-09-19T07:32:53;92807.78;;;15.64;74.40
52249;BME280;38541;48.130;8.378;2023-09-19T07:35:19;92816.13;;;15.86;74.22
52249;BME280;38541;48.130;8.378;2023-09-19T07:37:47;92814.22;;;15.91;73.54
52249;BME280;38541;48.130;8.378;2023-09-19T07:40:19;92814.59;;;15.98;72.96
52249;BME280;38541;48.130;8.378;2023-09-19T07:42:46;92830.44;;;16.04;73.47
52249;BME280;38541;48.130;8.378;2023-09-19T07:45:14;92823.00;;;15.87;73.28
52249;BME280;38541;48.130;8.378;2023-09-19T07:47:44;92821.69;;;15.89;72.97
52249;BME280;38541;48.130;8.378;2023-09-19T07:50:13;92821.09;;;15.92;73.31
52249;BME280;38541;48.130;8.378;2023-09-19T07:52:39;92825.41;;;16.02;73.95
52249;BME280;38541;48.130;8.378;2023-09-19T07:55:06;92835.41;;;16.19;73.92
52249;BME280;38541;48.130;8.378;2023-09-19T07:57:37;92832.75;;;16.19;72.75
52249;BME280;38541;48.130;8.378;2023-09-19T08:00:04;92833.78;;;16.23;72.55
52249;BME280;38541;48.130;8.378;2023-09-19T08:02:37;92840.53;;;16.30;71.23
52249;BME280;38541;48.130;8.378;2023-09-19T08:05:08;92843.50;;;16.42;71.52
52249;BME280;38541;48.130;8.378;2023-09-19T08:07:40;92845.84;;;16.30;70.95
52249;BME280;38541;48.130;8.378;2023-09-19T08:10:08;92845.63;;;16.26;71.38
52249;BME280;38541;48.130;8.378;2023-09-19T08:12:40;92842.41;;;16.43;72.09
52249;BME280;38541;48.130;8.378;2023-09-19T08:15:17;92847.41;;;16.59;72.31
52249;BME280;38541;48.130;8.378;2023-09-19T08:17:48;92856.16;;;16.45;71.16
52249;BME280;38541;48.130;8.378;2023-09-19T08:20:15;92854.84;;;16.57;71.54
52249;BME280;38541;48.130;8.378;2023-09-19T08:22:52;92856.72;;;16.56;69.63
52249;BME280;38541;48.130;8.378;2023-09-19T08:25:21;92864.31;;;16.49;69.61
52249;BME280;38541;48.130;8.378;2023-09-19T08:27:48;92861.72;;;16.58;68.68
52249;BME280;38541;48.130;8.378;2023-09-19T08:30:17;92866.84;;;16.54;68.46
52249;BME280;38541;48.130;8.378;2023-09-19T08:32:44;92864.50;;;16.38;67.95
52249;BME280;38541;48.130;8.378;2023-09-19T08:35:12;92865.78;;;16.55;68.69
52249;BME280;38541;48.130;8.378;2023-09-19T08:37:39;92875.88;;;16.67;66.66
52249;BME280;38541;48.130;8.378;2023-09-19T08:40:06;92876.25;;;16.74;66.21
52249;BME280;38541;48.130;8.378;2023-09-19T08:42:51;92866.84;;;16.68;65.52
52249;BME280;38541;48.130;8.378;2023-09-19T08:45:20;92881.97;;;16.81;65.49
52249;BME280;38541;48.130;8.378;2023-09-19T08:48:11;92873.69;;;16.83;65.06
52249;BME280;38541;48.130;8.378;2023-09-19T08:56:22;92893.75;;;16.75;64.93
52249;BME280;38541;48.130;8.378;2023-09-19T08:59:00;92891.78;;;16.67;64.41
52249;BME280;38541;48.130;8.378;2023-09-19T09:01:29;92891.59;;;16.77;65.41
52249;BME280;38541;48.130;8.378;2023-09-19T09:03:59;92890.41;;;16.83;64.58
52249;BME280;38541;48.130;8.378;2023-09-19T09:06:28;92889.44;;;16.79;64.90
52249;BME280;38541;48.130;8.378;2023-09-19T09:08:55;92891.56;;;17.05;65.52
52249;BME280;38541;48.130;8.378;2023-09-19T09:11:22;92895.19;;;17.09;65.81
52249;BME280;38541;48.130;8.378;2023-09-19T09:13:51;92896.44;;;17.26;63.08
52249;BME280;38541;48.130;8.378;2023-09-19T09:16:18;92895.06;;;17.15;62.91
52249;BME280;38541;48.130;8.378;2023-09-19T09:18:46;92895.59;;;17.17;63.72
52249;BME280;38541;48.130;8.378;2023-09-19T09:21:24;92894.72;;;17.07;63.68
52249;BME280;38541;48.130;8.378;2023-09-19T09:23:51;92899.41;;;17.10;64.12
52249;BME280;38541;48.130;8.378;2023-09-19T09:26:48;92901.47;;;17.14;63.18
52249;BME280;38541;48.130;8.378;2023-09-19T09:29:16;92908.88;;;16.89;62.42
52249;BME280;38541;48.130;8.378;2023-09-19T09:31:46;92911.81;;;16.73;63.10
52249;BME280;38541;48.130;8.378;2023-09-19T09:34:15;92915.19;;;16.65;62.51
52249;BME280;38541;48.130;8.378;2023-09-19T09:36:47;92917.44;;;16.72;61.85
52249;BME280;38541;48.130;8.378;2023-09-19T09:39:14;92913.13;;;16.62;63.29
52249;BME280;38541;48.130;8.378;2023-09-19T09:41:52;92908.88;;;16.89;62.67
52249;BME280;38541;48.130;8.378;2023-09-19T09:44:18;92908.09;;;16.74;62.17
52249;BME280;38541;48.130;8.378;2023-09-19T09:46:47;92905.75;;;16.73;62.94
52249;BME280;38541;48.130;8.378;2023-09-19T09:49:27;92899.13;;;16.84;63.11
52249;BME280;38541;48.130;8.378;2023-09-19T09:52:04;92912.31;;;17.03;63.92
52249;BME280;38541;48.130;8.378;2023-09-19T09:55:02;92898.81;;;17.14;61.67
52249;BME280;38541;48.130;8.378;2023-09-19T09:57:34;92909.03;;;17.20;63.10
52249;BME280;38541;48.130;8.378;2023-09-19T10:00:02;92903.72;;;17.20;62.07
52249;BME280;38541;48.130;8.378;2023-09-19T10:02:43;92895.84;;;17.29;62.52
52249;BME280;38541;48.130;8.378;2023-09-19T10:05:16;92901.53;;;17.36;62.92
52249;BME280;38541;48.130;8.378;2023-09-19T10:07:47;92895.84;;;17.52;60.42
52249;BME280;38541;48.130;8.378;2023-09-19T10:13:06;92904.06;;;17.42;60.54
52249;BME280;38541;48.130;8.378;2023-09-19T10:15:35;92899.00;;;17.17;60.18
52249;BME280;38541;48.130;8.378;2023-09-19T10:18:06;92893.03;;;17.11;59.11
52249;BME280;38541;48.130;8.378;2023-09-19T10:20:36;92897.41;;;17.30;60.40
52249;BME280;38541;48.130;8.378;2023-09-19T10:23:09;92895.50;;;17.67;60.30
52249;BME280;38541;48.130;8.378;2023-09-19T10:25:38;92901.06;;;17.80;58.75
52249;BME280;38541;48.130;8.378;2023-09-19T10:28:07;92895.06;;;17.74;58.60
52249;BME280;38541;48.130;8.378;2023-09-19T10:30:43;92890.78;;;17.64;58.75
52249;BME280;38541;48.130;8.378;2023-09-19T10:33:15;92897.94;;;17.55;59.49
52249;BME280;38541;48.130;8.378;2023-09-19T10:35:44;92893.78;;;17.49;59.12
52249;BME280;38541;48.130;8.378;2023-09-19T10:38:12;92890.34;;;17.25;59.66
52249;BME280;38541;48.130;8.378;2023-09-19T10:40:42;92901.06;;;17.20;60.13
52249;BME280;38541;48.130;8.378;2023-09-19T10:43:13;92897.84;;;17.09;60.26
52249;BME280;38541;48.130;8.378;2023-09-19T10:45:47;92889.19;;;17.18;59.64
52249;BME280;38541;48.130;8.378;2023-09-19T10:48:16;92882.88;;;17.28;59.86
52249;BME280;38541;48.130;8.378;2023-09-19T10:50:50;92888.31;;;17.45;60.13
52249;BME280;38541;48.130;8.378;2023-09-19T10:53:17;92885.72;;;17.77;59.19
52249;BME280;38541;48.130;8.378;2023-09-19T10:55:51;92874.63;;;17.75;59.17
52249;BME280;38541;48.130;8.378;2023-09-19T10:58:27;92888.13;;;17.64;58.37
52249;BME280;38541;48.130;8.378;2023-09-19T11:00:57;92880.28;;;17.82;58.76
52249;BME280;38541;48.130;8.378;2023-09-19T11:03:32;92882.44;;;18.03;57.96
52249;BME280;38541;48.130;8.378;2023-09-19T11:06:08;92863.91;;;18.20;57.91
52249;BME280;38541;48.130;8.378;2023-09-19T11:08:57;92872.94;;;18.51;56.30
52249;BME280;38541;48.130;8.378;2023-09-19T11:30:33;92860.00;;;18.58;55.35
52249;BME280;38541;48.130;8.378;2023-09-19T11:36:11;92868.56;;;19.39;53.81
52249;BME280;38541;48.130;8.378;2023-09-19T11:44:38;92857.91;;;19.04;54.01
52249;BME280;38541;48.130;8.378;2023-09-19T11:46:52;92876.09;;;19.55;53.32
52249;BME280;38541;48.130;8.378;2023-09-19T11:49:26;92872.66;;;19.28;53.81
52249;BME280;38541;48.130;8.378;2023-09-19T11:51:56;92857.59;;;19.50;52.30
52249;BME280;38541;48.130;8.378;2023-09-19T11:54:26;92861.53;;;19.52;52.56
52249;BME280;38541;48.130;8.378;2023-09-19T11:56:55;92864.81;;;19.41;53.49
52249;BME280;38541;48.130;8.378;2023-09-19T11:59:22;92864.31;;;19.65;52.65
52249;BME280;38541;48.130;8.378;2023-09-19T12:01:54;92859.94;;;19.60;52.68
52249;BME280;38541;48.130;8.378;2023-09-19T12:04:34;92853.50;;;19.61;53.08
52249;BME280;38541;48.130;8.378;2023-09-19T12:07:09;92847.22;;;19.75;50.23
52249;BME280;38541;48.130;8.378;2023-09-19T12:09:45;92838.78;;;19.55;51.40
52249;BME280;38541;48.130;8.378;2023-09-19T12:12:22;92846.50;;;19.30;51.57
52249;BME280;38541;48.130;8.378;2023-09-19T12:14:50;92836.13;;;19.46;50.99
52249;BME280;38541;48.130;8.378;2023-09-19T12:17:17;92840.03;;;19.58;51.45
52249;BME280;38541;48.130;8.378;2023-09-19T12:19:56;92840.53;;;20.16;52.29
52249;BME280;38541;48.130;8.378;2023-09-19T12:22:23;92836.25;;;20.33;50.63
52249;BME280;38541;48.130;8.378;2023-09-19T12:24:51;92836.63;;;20.52;49.22
52249;BME280;38541;48.130;8.378;2023-09-19T12:27:21;92833.13;;;20.61;51.17
52249;BME280;38541;48.130;8.378;2023-09-19T12:29:49;92834.88;;;20.87;49.27
52249;BME280;38541;48.130;8.378;2023-09-19T12:32:17;92835.03;;;21.12;49.42
52249;BME280;38541;48.130;8.378;2023-09-19T12:34:52;92830.56;;;21.58;48.47
52249;BME280;38541;48.130;8.378;2023-09-19T12:37:20;92834.75;;;21.68;45.39
52249;BME280;38541;48.130;8.378;2023-09-19T12:39:52;92830.34;;;21.51;46.17
52249;BME280;38541;48.130;8.378;2023-09-19T12:42:22;92831.25;;;21.55;46.72
52249;BME280;38541;48.130;8.378;2023-09-19T12:44:51;92819.97;;;21.83;46.21
52249;BME280;38541;48.130;8.378;2023-09-19T12:47:24;92821.38;;;22.14;45.92
52249;BME280;38541;48.130;8.378;2023-09-19T12:52:52;92817.47;;;21.99;43.03
52249;BME280;38541;48.130;8.378;2023-09-19T12:55:30;92823.97;;;21.77;41.90
52249;BME280;38541;48.130;8.378;2023-09-19T12:58:13;92828.81;;;21.62;42.52
52249;BME280;38541;48.130;8.378;2023-09-19T13:00:42;92839.03;;;21.82;38.15
52249;BME280;38541;48.130;8.378;2023-09-19T13:03:18;92810.19;;;22.00;39.37
52249;BME280;38541;48.130;8.378;2023-09-19T13:08:30;92821.41;;;22.76;37.86
52249;BME280;38541;48.130;8.378;2023-09-19T13:11:03;92823.19;;;22.60;38.81
52249;BME280;38541;48.130;8.378;2023-09-19T13:13:30;92826.09;;;22.30;38.58
52249;BME280;38541;48.130;8.378;2023-09-19T13:15:57;92832.13;;;22.64;37.74
52249;BME280;38541;48.130;8.378;2023-09-19T13:18:24;92818.50;;;22.32;38.46
52249;BME280;38541;48.130;8.378;2023-09-19T13:21:09;92817.75;;;22.56;38.27
52249;BME280;38541;48.130;8.378;2023-09-19T13:23:42;92811.78;;;22.26;38.07
52249;BME280;38541;48.130;8.378;2023-09-19T13:26:10;92803.44;;;22.27;39.21
52249;BME280;38541;48.130;8.378;2023-09-19T13:28:38;92808.88;;;22.43;39.28
52249;BME280;38541;48.130;8.378;2023-09-19T13:31:05;92823.88;;;22.69;39.95
52249;BME280;38541;48.130;8.378;2023-09-19T13:33:33;92808.47;;;22.29;38.82
52249;BME280;38541;48.130;8.378;2023-09-19T13:36:00;92825.66;;;22.52;37.28
52249;BME280;38541;48.130;8.378;2023-09-19T13:38:26;92815.03;;;22.19;39.02
52249;BME280;38541;48.130;8.378;2023-09-19T13:40:53;92814.16;;;22.52;38.13
52249;BME280;38541;48.130;8.378;2023-09-19T13:43:20;92808.03;;;21.68;39.56
52249;BME280;38541;48.130;8.378;2023-09-19T13:45:48;92790.59;;;22.45;39.46
52249;BME280;38541;48.130;8.378;2023-09-19T13:48:15;92796.13;;;23.02;40.90
52249;BME280;38541;48.130;8.378;2023-09-19T13:50:42;92798.28;;;22.34;38.04
52249;BME280;38541;48.130;8.378;2023-09-19T13:53:09;92802.41;;;22.44;37.94
52249;BME280;38541;48.130;8.378;2023-09-19T13:55:36;92806.81;;;22.61;37.34
52249;BME280;38541;48.130;8.378;2023-09-19T13:58:04;92805.81;;;22.66;38.25
52249;BME280;38541;48.130;8.378;2023-09-19T14:00:33;92789.06;;;22.69;38.81
52249;BME280;38541;48.130;8.378;2023-09-19T14:03:03;92796.97;;;23.19;37.83
52249;BME280;38541;48.130;8.378;2023-09-19T14:05:31;92784.88;;;22.97;38.02
52249;BME280;38541;48.130;8.378;2023-09-19T14:07:58;92790.47;;;23.32;38.11
52249;BME280;38541;48.130;8.378;2023-09-19T14:10:30;92791.09;;;23.13;37.72
52249;BME280;38541;48.130;8.378;2023-09-19T14:12:57;92791.94;;;22.89;38.65
52249;BME280;38541;48.130;8.378;2023-09-19T14:15:26;92788.44;;;23.01;39.21